Weather at Memmingen Allgau Airport

Public forecast

Using degrees Celsius for public forecast. Weather courtesy of forecast.io.

Current aviation weather report (METAR) for Memmingen Allgau Airport

2022/11/30 07:50 (retrieved 31 minutes ago)

EDJA 300750Z 06009KT 7000 OVC004 02/01 Q1019

Closest aviation forecast (TAF) to Memmingen Allgau Airport

Closest forecast is Friedrichshafen Airport, 35.0 nm (64.8 km) WSW.

2022/11/30 06:27 (retrieved 2 hours ago)

TAF EDNY 300500Z 3006/0106 04006KT 9999 FEW012 BKN020 TEMPO 3006/3010 BKN010